createdAt,value
2019-02-02T00:00:12.945Z,990.31
2019-02-02T00:01:12.913Z,990.35
2019-02-02T00:02:12.898Z,990.31
2019-02-02T00:03:12.888Z,990.32
2019-02-02T00:04:12.881Z,990.28
2019-02-02T00:05:12.889Z,990.29
2019-02-02T00:06:12.858Z,990.27
2019-02-02T00:07:12.854Z,990.28
2019-02-02T00:08:12.833Z,990.29
2019-02-02T00:09:12.828Z,990.24
2019-02-02T00:10:12.833Z,990.25
2019-02-02T00:11:12.806Z,990.23
2019-02-02T00:12:12.801Z,990.21
2019-02-02T00:13:12.785Z,990.20
2019-02-02T00:14:12.777Z,990.16
2019-02-02T00:15:12.788Z,990.14
2019-02-02T00:16:12.756Z,990.13
2019-02-02T00:17:12.745Z,990.08
2019-02-02T00:18:12.736Z,990.04
2019-02-02T00:19:12.726Z,990.01
2019-02-02T00:20:12.715Z,990.04
2019-02-02T00:21:12.714Z,990.03
2019-02-02T00:22:12.697Z,990.05
2019-02-02T00:23:12.681Z,990.07
2019-02-02T00:24:12.672Z,990.14
2019-02-02T00:25:12.660Z,990.12
2019-02-02T00:26:12.671Z,990.08
2019-02-02T00:27:12.645Z,990.13
2019-02-02T00:28:12.646Z,990.14
2019-02-02T00:29:12.626Z,990.12
2019-02-02T00:30:12.611Z,990.09
2019-02-02T00:31:12.614Z,990.11
2019-02-02T00:32:12.589Z,990.13
2019-02-02T00:33:12.583Z,990.09
2019-02-02T00:34:12.573Z,990.12
2019-02-02T00:35:12.573Z,990.08
2019-02-02T00:36:12.561Z,990.03
2019-02-02T00:37:12.544Z,990.05
2019-02-02T00:38:12.523Z,989.95
2019-02-02T00:39:12.516Z,989.94
2019-02-02T00:40:12.506Z,989.93
2019-02-02T00:41:12.511Z,989.96
2019-02-02T00:42:12.484Z,989.97
2019-02-02T00:43:12.480Z,989.96
2019-02-02T00:44:12.469Z,989.96
2019-02-02T00:45:12.456Z,989.97
2019-02-02T00:46:12.454Z,989.98
2019-02-02T00:47:12.434Z,989.96
2019-02-02T00:48:12.443Z,989.97
2019-02-02T00:49:12.410Z,990.05
2019-02-02T00:50:12.398Z,990.03
2019-02-02T00:51:12.407Z,990.07
2019-02-02T00:52:12.380Z,990.12
2019-02-02T00:53:12.370Z,990.10
2019-02-02T00:54:12.359Z,990.19
2019-02-02T00:55:12.350Z,990.19
2019-02-02T00:56:12.353Z,990.21
2019-02-02T00:57:12.325Z,990.21
2019-02-02T00:58:12.313Z,990.23
2019-02-02T00:59:12.306Z,990.24
2019-02-02T01:00:12.296Z,990.25
2019-02-02T01:01:12.316Z,990.26
2019-02-02T01:02:12.277Z,990.26
2019-02-02T01:03:12.261Z,990.28
2019-02-02T01:04:12.258Z,990.29
2019-02-02T01:05:12.242Z,990.37
2019-02-02T01:06:12.230Z,990.30
2019-02-02T01:07:12.237Z,990.32
2019-02-02T01:08:12.210Z,990.39
2019-02-02T01:09:12.202Z,990.32
2019-02-02T01:10:12.198Z,990.38
2019-02-02T01:11:12.180Z,990.34
2019-02-02T01:12:12.191Z,990.36
2019-02-02T01:13:12.164Z,990.35
2019-02-02T01:14:12.148Z,990.30
2019-02-02T01:15:12.139Z,990.32
2019-02-02T01:16:12.136Z,990.30
2019-02-02T01:17:12.138Z,990.33
2019-02-02T01:18:12.110Z,990.31
2019-02-02T01:19:12.103Z,990.33
2019-02-02T01:20:12.086Z,990.34
2019-02-02T01:21:12.081Z,990.34
2019-02-02T01:22:12.089Z,990.34
2019-02-02T01:23:12.063Z,990.36
2019-02-02T01:24:12.046Z,990.38
2019-02-02T01:25:12.036Z,990.33
2019-02-02T01:26:12.031Z,990.32
2019-02-02T01:27:12.034Z,990.35
2019-02-02T01:28:12.009Z,990.28
2019-02-02T01:29:11.998Z,990.35
2019-02-02T01:30:11.989Z,990.38
2019-02-02T01:31:11.977Z,990.35
2019-02-02T01:32:13.996Z,990.28
2019-02-02T01:33:11.959Z,990.31
2019-02-02T01:34:11.951Z,990.31
2019-02-02T01:35:11.937Z,990.30
2019-02-02T01:36:11.933Z,990.26
2019-02-02T01:37:11.951Z,990.26
2019-02-02T01:38:11.915Z,990.30
2019-02-02T01:39:11.898Z,990.30
2019-02-02T01:40:11.893Z,990.29
2019-02-02T01:41:11.881Z,990.25
2019-02-02T01:42:11.865Z,990.21
2019-02-02T01:43:11.865Z,990.27
2019-02-02T01:44:11.851Z,990.24
2019-02-02T01:45:11.843Z,990.29
2019-02-02T01:46:11.828Z,990.27
2019-02-02T01:47:11.823Z,990.32
2019-02-02T01:48:11.819Z,990.31
2019-02-02T01:49:11.795Z,990.27
2019-02-02T01:50:11.785Z,990.34
2019-02-02T01:51:11.774Z,990.31
2019-02-02T01:52:11.765Z,990.33
2019-02-02T01:53:11.772Z,990.27
2019-02-02T01:54:11.751Z,990.23
2019-02-02T01:55:11.733Z,990.24
2019-02-02T01:56:11.723Z,990.15
2019-02-02T01:57:11.717Z,990.16
2019-02-02T01:58:16.757Z,990.16
2019-02-02T01:59:12.693Z,990.16
2019-02-02T02:00:11.749Z,990.11
2019-02-02T02:01:11.671Z,990.08
2019-02-02T02:02:11.667Z,990.08
2019-02-02T02:03:11.679Z,990.09
2019-02-02T02:04:11.648Z,990.08
2019-02-02T02:05:11.634Z,990.06
2019-02-02T02:06:11.623Z,990.08
2019-02-02T02:07:11.618Z,990.10
2019-02-02T02:08:11.608Z,990.13
2019-02-02T02:09:11.608Z,990.18
2019-02-02T02:10:11.582Z,990.18
2019-02-02T02:11:11.580Z,990.24
2019-02-02T02:12:11.565Z,990.22
2019-02-02T02:13:11.636Z,990.22
2019-02-02T02:14:11.564Z,990.20
2019-02-02T02:15:11.537Z,990.19
2019-02-02T02:16:11.525Z,990.19
2019-02-02T02:17:11.518Z,990.12
2019-02-02T02:18:11.507Z,990.14
2019-02-02T02:19:11.508Z,990.12
2019-02-02T02:20:11.482Z,990.14
2019-02-02T02:21:11.471Z,990.14
2019-02-02T02:22:11.462Z,990.09
2019-02-02T02:23:11.454Z,990.09
2019-02-02T02:24:11.463Z,990.08
2019-02-02T02:25:11.450Z,990.08
2019-02-02T02:26:11.424Z,990.04
2019-02-02T02:27:11.413Z,990.05
2019-02-02T02:28:11.407Z,990.03
2019-02-02T02:29:11.402Z,990.05
2019-02-02T02:30:11.386Z,990.04
2019-02-02T02:31:11.368Z,990.05
2019-02-02T02:32:11.362Z,990.06
2019-02-02T02:33:11.353Z,990.08
2019-02-02T02:34:11.365Z,989.99
2019-02-02T02:35:11.333Z,990.00
2019-02-02T02:36:11.337Z,989.96
2019-02-02T02:37:11.310Z,989.92
2019-02-02T02:38:11.305Z,989.89
2019-02-02T02:39:11.307Z,989.94
2019-02-02T02:40:11.283Z,989.82
2019-02-02T02:41:11.283Z,989.85
2019-02-02T02:42:11.264Z,989.82
2019-02-02T02:43:11.251Z,989.84
2019-02-02T02:44:11.254Z,989.87
2019-02-02T02:45:11.230Z,989.86
2019-02-02T02:46:11.218Z,989.89
2019-02-02T02:47:11.212Z,989.90
2019-02-02T02:48:11.204Z,989.92
2019-02-02T02:49:11.207Z,989.92
2019-02-02T02:50:11.178Z,989.92
2019-02-02T02:51:11.183Z,989.96
2019-02-02T02:52:11.173Z,989.97
2019-02-02T02:53:11.146Z,989.98
2019-02-02T02:54:11.158Z,990.00
2019-02-02T02:55:11.130Z,990.03
2019-02-02T02:56:11.118Z,990.00
2019-02-02T02:57:11.118Z,989.98
2019-02-02T02:58:11.104Z,989.98
2019-02-02T02:59:11.102Z,989.93
2019-02-02T03:00:11.082Z,989.89
2019-02-02T03:01:11.083Z,989.87
2019-02-02T03:02:11.059Z,989.82
2019-02-02T03:03:11.051Z,989.78
2019-02-02T03:04:11.052Z,989.74
2019-02-02T03:05:11.026Z,989.73
2019-02-02T03:06:11.021Z,989.67
2019-02-02T03:07:11.054Z,989.71
2019-02-02T03:08:10.995Z,989.69
2019-02-02T03:09:11.021Z,989.68
2019-02-02T03:10:10.975Z,989.66
2019-02-02T03:11:10.964Z,989.62
2019-02-02T03:12:10.955Z,989.65
2019-02-02T03:13:10.939Z,989.69
2019-02-02T03:14:10.928Z,989.63
2019-02-02T03:15:10.939Z,989.64
2019-02-02T03:16:10.938Z,989.63
2019-02-02T03:17:10.899Z,989.64
2019-02-02T03:18:10.882Z,989.69
2019-02-02T03:19:10.878Z,989.70
2019-02-02T03:20:10.879Z,989.76
2019-02-02T03:21:10.863Z,989.82
2019-02-02T03:22:10.845Z,989.80
2019-02-02T03:23:10.838Z,989.72
2019-02-02T03:24:10.822Z,989.71
2019-02-02T03:25:10.827Z,989.68
2019-02-02T03:26:10.802Z,989.64
2019-02-02T03:27:10.802Z,989.61
2019-02-02T03:28:10.778Z,989.57
2019-02-02T03:29:10.772Z,989.57
2019-02-02T03:30:10.777Z,989.54
2019-02-02T03:31:10.750Z,989.55
2019-02-02T03:32:10.738Z,989.50
2019-02-02T03:33:10.733Z,989.57
2019-02-02T03:34:10.728Z,989.54
2019-02-02T03:35:10.721Z,989.54
2019-02-02T03:36:10.698Z,989.54
2019-02-02T03:37:10.684Z,989.56
2019-02-02T03:38:10.676Z,989.59
2019-02-02T03:39:10.665Z,989.55
2019-02-02T03:40:10.672Z,989.61
2019-02-02T03:41:10.650Z,989.63
2019-02-02T03:42:10.637Z,989.63
2019-02-02T03:43:10.631Z,989.64
2019-02-02T03:44:10.617Z,989.75
2019-02-02T03:45:10.622Z,989.70
2019-02-02T03:46:10.614Z,989.74
2019-02-02T03:47:10.593Z,989.69
2019-02-02T03:48:10.580Z,989.67
2019-02-02T03:49:10.569Z,989.66
2019-02-02T03:50:10.584Z,989.65
2019-02-02T03:51:10.545Z,989.64
2019-02-02T03:52:10.536Z,989.68
2019-02-02T03:53:10.528Z,989.63
2019-02-02T03:54:10.520Z,989.66
2019-02-02T03:55:10.506Z,989.73
2019-02-02T03:56:10.507Z,989.74
2019-02-02T03:57:10.489Z,989.80
2019-02-02T03:58:10.481Z,989.82
2019-02-02T03:59:10.465Z,989.87
2019-02-02T04:00:10.457Z,989.85
2019-02-02T04:01:10.454Z,989.89
2019-02-02T04:02:10.435Z,989.91
2019-02-02T04:03:10.421Z,989.94
2019-02-02T04:04:10.412Z,989.90
2019-02-02T04:05:10.397Z,989.92
2019-02-02T04:06:10.409Z,989.93
2019-02-02T04:07:10.381Z,989.91
2019-02-02T04:08:10.363Z,989.88
2019-02-02T04:09:10.355Z,989.91
2019-02-02T04:10:10.343Z,989.89
2019-02-02T04:11:10.345Z,989.88
2019-02-02T04:12:10.335Z,989.85
2019-02-02T04:13:10.315Z,989.86
2019-02-02T04:14:10.307Z,989.86
2019-02-02T04:15:10.288Z,989.85
2019-02-02T04:16:10.295Z,989.80
2019-02-02T04:17:10.267Z,989.76
2019-02-02T04:18:10.259Z,989.75
2019-02-02T04:19:10.254Z,989.71
2019-02-02T04:20:10.244Z,989.71
2019-02-02T04:21:10.239Z,989.77
2019-02-02T04:22:10.212Z,989.82
2019-02-02T04:23:10.208Z,989.86
2019-02-02T04:24:10.193Z,989.90
2019-02-02T04:25:10.191Z,989.86
2019-02-02T04:26:10.186Z,989.86
2019-02-02T04:27:10.168Z,989.87
2019-02-02T04:28:10.148Z,989.81
2019-02-02T04:29:17.537Z,989.83
2019-02-02T04:30:11.127Z,989.76
2019-02-02T04:31:10.133Z,989.73
2019-02-02T04:32:10.182Z,989.75
2019-02-02T04:33:10.097Z,989.68
2019-02-02T04:34:10.089Z,989.65
2019-02-02T04:35:10.076Z,989.63
2019-02-02T04:36:10.086Z,989.55
2019-02-02T04:37:10.053Z,989.52
2019-02-02T04:38:10.041Z,989.52
2019-02-02T04:39:10.037Z,989.48
2019-02-02T04:40:10.025Z,989.52
2019-02-02T04:41:10.017Z,989.54
2019-02-02T04:42:10.013Z,989.58
2019-02-02T04:43:09.990Z,989.62
2019-02-02T04:44:09.989Z,989.62
2019-02-02T04:45:09.972Z,989.66
2019-02-02T04:46:09.963Z,989.73
2019-02-02T04:47:09.960Z,989.77
2019-02-02T04:48:09.944Z,989.83
2019-02-02T04:49:09.925Z,989.85
2019-02-02T04:50:09.915Z,989.90
2019-02-02T04:51:09.907Z,989.93
2019-02-02T04:52:09.906Z,989.97
2019-02-02T04:53:09.886Z,989.97
2019-02-02T04:54:09.870Z,989.90
2019-02-02T04:55:09.863Z,989.88
2019-02-02T04:56:09.855Z,989.78
2019-02-02T04:57:09.850Z,989.80
2019-02-02T04:58:09.829Z,989.72
2019-02-02T04:59:09.814Z,989.70
2019-02-02T05:00:09.809Z,989.64
2019-02-02T05:01:09.800Z,989.57
2019-02-02T05:02:09.794Z,989.51
2019-02-02T05:03:09.775Z,989.42
2019-02-02T05:04:09.760Z,989.39
2019-02-02T05:05:09.757Z,989.37
2019-02-02T05:06:09.744Z,989.34
2019-02-02T05:07:09.740Z,989.29
2019-02-02T05:08:09.719Z,989.28
2019-02-02T05:09:09.709Z,989.20
2019-02-02T05:10:09.704Z,989.20
2019-02-02T05:11:09.690Z,989.19
2019-02-02T05:12:09.708Z,989.28
2019-02-02T05:13:09.671Z,989.33
2019-02-02T05:14:09.729Z,989.34
2019-02-02T05:15:09.647Z,989.34
2019-02-02T05:16:09.639Z,989.28
2019-02-02T05:17:09.642Z,989.30
2019-02-02T05:18:09.639Z,989.23
2019-02-02T05:19:09.601Z,989.28
2019-02-02T05:20:09.591Z,989.27
2019-02-02T05:21:09.579Z,989.25
2019-02-02T05:22:09.588Z,989.34
2019-02-02T05:23:09.568Z,989.34
2019-02-02T05:24:10.465Z,989.38
2019-02-02T05:25:09.548Z,989.39
2019-02-02T05:26:09.526Z,989.40
2019-02-02T05:27:09.517Z,989.46
2019-02-02T05:28:09.514Z,989.50
2019-02-02T05:29:09.499Z,989.55
2019-02-02T05:30:09.487Z,989.58
2019-02-02T05:31:09.477Z,989.58
2019-02-02T05:32:09.463Z,989.59
2019-02-02T05:33:09.463Z,989.55
2019-02-02T05:34:09.446Z,989.64
2019-02-02T05:35:09.431Z,989.61
2019-02-02T05:36:09.421Z,989.59
2019-02-02T05:37:09.411Z,989.58
2019-02-02T05:38:09.412Z,989.59
2019-02-02T05:39:09.384Z,989.56
2019-02-02T05:40:09.380Z,989.46
2019-02-02T05:41:09.366Z,989.53
2019-02-02T05:42:09.356Z,989.43
2019-02-02T05:43:09.359Z,989.37
2019-02-02T05:44:09.342Z,989.33
2019-02-02T05:45:09.326Z,989.34
2019-02-02T05:46:09.325Z,989.37
2019-02-02T05:47:09.309Z,989.47
2019-02-02T05:48:09.309Z,989.49
2019-02-02T05:49:09.292Z,989.55
2019-02-02T05:50:09.277Z,989.59
2019-02-02T05:51:09.273Z,989.58
2019-02-02T05:52:09.256Z,989.61
2019-02-02T05:53:09.264Z,989.63
2019-02-02T05:54:09.231Z,989.67
2019-02-02T05:55:09.230Z,989.67
2019-02-02T05:56:09.215Z,989.66
2019-02-02T05:57:09.204Z,989.70
2019-02-02T05:58:09.225Z,989.70
2019-02-02T05:59:09.179Z,989.73
2019-02-02T06:00:09.177Z,989.67
2019-02-02T06:01:09.160Z,989.70
2019-02-02T06:02:09.154Z,989.74
2019-02-02T06:03:09.137Z,989.73
2019-02-02T06:04:09.145Z,989.79
2019-02-02T06:05:09.118Z,989.75
2019-02-02T06:06:09.115Z,989.73
2019-02-02T06:07:09.102Z,989.77
2019-02-02T06:08:09.087Z,989.82
2019-02-02T06:09:09.090Z,989.87
2019-02-02T06:10:09.068Z,989.94
2019-02-02T06:11:09.057Z,990.04
2019-02-02T06:12:09.055Z,990.04
2019-02-02T06:13:09.034Z,990.04
2019-02-02T06:14:09.046Z,990.06
2019-02-02T06:15:09.015Z,990.03
2019-02-02T06:16:09.009Z,990.04
2019-02-02T06:17:08.997Z,990.03
2019-02-02T06:18:08.987Z,990.04
2019-02-02T06:19:08.990Z,990.01
2019-02-02T06:20:08.966Z,989.97
2019-02-02T06:21:08.955Z,990.03
2019-02-02T06:22:08.944Z,989.98
2019-02-02T06:23:08.935Z,989.98
2019-02-02T06:24:08.943Z,989.94
2019-02-02T06:25:08.909Z,989.98
2019-02-02T06:26:08.902Z,990.02
2019-02-02T06:27:08.897Z,989.98
2019-02-02T06:28:08.879Z,990.02
2019-02-02T06:29:08.878Z,990.05
2019-02-02T06:30:08.874Z,990.07
2019-02-02T06:31:08.848Z,990.05
2019-02-02T06:32:12.014Z,990.04
2019-02-02T06:33:08.829Z,990.04
2019-02-02T06:34:08.816Z,990.02
2019-02-02T06:35:08.888Z,990.01
2019-02-02T06:36:08.798Z,990.06
2019-02-02T06:37:08.789Z,990.08
2019-02-02T06:38:08.779Z,990.02
2019-02-02T06:39:08.770Z,990.06
2019-02-02T06:40:08.775Z,990.08
2019-02-02T06:41:08.746Z,990.04
2019-02-02T06:42:08.734Z,990.11
2019-02-02T06:43:08.722Z,990.14
2019-02-02T06:44:08.711Z,990.15
2019-02-02T06:45:08.715Z,990.14
2019-02-02T06:46:08.692Z,990.18
2019-02-02T06:47:08.683Z,990.17
2019-02-02T06:48:08.674Z,990.12
2019-02-02T06:49:08.663Z,990.10
2019-02-02T06:50:08.672Z,990.09
2019-02-02T06:51:08.642Z,990.08
2019-02-02T06:52:08.627Z,990.04
2019-02-02T06:53:08.624Z,990.04
2019-02-02T06:54:08.613Z,990.07
2019-02-02T06:55:08.614Z,990.06
2019-02-02T06:56:08.590Z,990.03
2019-02-02T06:57:08.579Z,989.96
2019-02-02T06:58:08.570Z,989.95
2019-02-02T06:59:08.557Z,989.87
2019-02-02T07:00:15.866Z,989.79
2019-02-02T07:01:09.539Z,989.75
2019-02-02T07:02:08.529Z,989.75
2019-02-02T07:03:08.515Z,989.69
2019-02-02T07:04:08.510Z,989.69
2019-02-02T07:05:08.513Z,989.73
2019-02-02T07:06:08.608Z,989.77
2019-02-02T07:07:08.484Z,989.81
2019-02-02T07:08:08.464Z,989.83
2019-02-02T07:09:08.458Z,989.80
2019-02-02T07:10:08.470Z,989.80
2019-02-02T07:11:08.445Z,989.85
2019-02-02T07:12:08.429Z,989.81
2019-02-02T07:13:08.417Z,989.87
2019-02-02T07:14:08.408Z,989.90
2019-02-02T07:15:08.409Z,989.90
2019-02-02T07:16:08.387Z,989.90
2019-02-02T07:17:08.378Z,989.96
2019-02-02T07:18:08.360Z,989.97
2019-02-02T07:19:08.366Z,989.99
2019-02-02T07:20:08.356Z,990.06
2019-02-02T07:21:08.333Z,990.05
2019-02-02T07:22:08.330Z,990.10
2019-02-02T07:23:08.318Z,990.15
2019-02-02T07:24:08.306Z,990.20
2019-02-02T07:25:08.323Z,990.28
2019-02-02T07:26:08.283Z,990.28
2019-02-02T07:27:08.276Z,990.31
2019-02-02T07:28:08.270Z,990.30
2019-02-02T07:29:08.261Z,990.41
2019-02-02T07:30:08.248Z,990.45
2019-02-02T07:31:08.244Z,990.48
2019-02-02T07:32:08.223Z,990.49
2019-02-02T07:33:08.212Z,990.52
2019-02-02T07:34:08.216Z,990.52
2019-02-02T07:35:08.194Z,990.45
2019-02-02T07:36:08.192Z,990.48
2019-02-02T07:37:08.170Z,990.50
2019-02-02T07:38:08.158Z,990.43
2019-02-02T07:39:08.146Z,990.45
2019-02-02T07:40:08.199Z,990.42
2019-02-02T07:41:08.144Z,990.43
2019-02-02T07:42:08.122Z,990.39
2019-02-02T07:43:08.114Z,990.37
2019-02-02T07:44:08.095Z,990.44
2019-02-02T07:45:08.090Z,990.51
2019-02-02T07:46:14.750Z,990.54
2019-02-02T07:47:09.370Z,990.56
2019-02-02T07:48:08.055Z,990.56
2019-02-02T07:49:08.045Z,990.54
2019-02-02T07:50:08.038Z,990.56
2019-02-02T07:51:08.038Z,990.54
2019-02-02T07:52:08.015Z,990.52
2019-02-02T07:53:08.010Z,990.59
2019-02-02T07:54:08.024Z,990.64
2019-02-02T07:55:07.982Z,990.62
2019-02-02T07:56:08.023Z,990.62
2019-02-02T07:57:07.965Z,990.61
2019-02-02T07:58:07.951Z,990.60
2019-02-02T07:59:07.945Z,990.63
2019-02-02T08:00:07.936Z,990.57
2019-02-02T08:01:07.932Z,990.49
2019-02-02T08:02:07.914Z,990.46
2019-02-02T08:03:07.913Z,990.42
2019-02-02T08:04:07.888Z,990.49
2019-02-02T08:05:07.879Z,990.45
2019-02-02T08:06:07.913Z,990.43
2019-02-02T08:07:07.860Z,990.41
2019-02-02T08:08:07.907Z,990.43
2019-02-02T08:09:07.844Z,990.38
2019-02-02T08:10:07.842Z,990.40
2019-02-02T08:11:07.826Z,990.44
2019-02-02T08:12:07.836Z,990.48
2019-02-02T08:13:07.802Z,990.52
2019-02-02T08:14:07.803Z,990.58
2019-02-02T08:15:07.774Z,990.62
2019-02-02T08:16:07.766Z,990.60
2019-02-02T08:17:07.770Z,990.60
2019-02-02T08:18:07.750Z,990.63
2019-02-02T08:19:07.736Z,990.68
2019-02-02T08:20:07.730Z,990.77
2019-02-02T08:21:07.717Z,990.86
2019-02-02T08:22:07.726Z,990.87
2019-02-02T08:23:07.701Z,990.90
2019-02-02T08:24:07.687Z,990.95
2019-02-02T08:25:07.675Z,990.94
2019-02-02T08:26:07.662Z,990.94
2019-02-02T08:27:07.673Z,990.92
2019-02-02T08:28:07.644Z,990.96
2019-02-02T08:29:07.633Z,990.92
2019-02-02T08:30:07.624Z,990.90
2019-02-02T08:31:07.618Z,990.87
2019-02-02T08:32:07.618Z,990.85
2019-02-02T08:33:07.709Z,990.81
2019-02-02T08:34:07.588Z,990.85
2019-02-02T08:35:07.576Z,990.84
2019-02-02T08:36:07.568Z,990.86
2019-02-02T08:37:07.571Z,990.86
2019-02-02T08:38:07.557Z,990.83
2019-02-02T08:39:07.535Z,990.87
2019-02-02T08:40:07.528Z,990.91
2019-02-02T08:41:07.604Z,990.95
2019-02-02T08:42:07.531Z,990.92
2019-02-02T08:43:07.493Z,990.89
2019-02-02T08:44:07.482Z,990.89
2019-02-02T08:45:07.470Z,990.82
2019-02-02T08:46:07.458Z,990.89
2019-02-02T08:47:07.451Z,990.87
2019-02-02T08:48:07.455Z,990.90
2019-02-02T08:49:07.427Z,990.88
2019-02-02T08:50:07.423Z,990.86
2019-02-02T08:51:07.412Z,990.86
2019-02-02T08:52:07.406Z,990.90
2019-02-02T08:53:07.474Z,990.82
2019-02-02T08:54:07.396Z,990.90
2019-02-02T08:55:07.378Z,990.93
2019-02-02T08:56:07.358Z,991.09
2019-02-02T08:57:07.428Z,991.11
2019-02-02T08:58:07.349Z,991.14
2019-02-02T08:59:07.322Z,991.10
2019-02-02T09:00:07.316Z,991.06
2019-02-02T09:01:07.307Z,991.00
2019-02-02T09:02:07.293Z,990.98
2019-02-02T09:03:07.297Z,990.98
2019-02-02T09:04:07.322Z,990.91
2019-02-02T09:05:07.407Z,990.99
2019-02-02T09:06:07.404Z,991.01
2019-02-02T09:07:07.287Z,991.05
2019-02-02T09:08:07.255Z,991.16
2019-02-02T09:09:07.227Z,991.21
2019-02-02T09:10:07.219Z,991.28
2019-02-02T09:11:07.210Z,991.28
2019-02-02T09:12:07.191Z,991.23
2019-02-02T09:13:07.198Z,991.26
2019-02-02T09:14:07.185Z,991.28
2019-02-02T09:15:07.162Z,991.29
2019-02-02T09:16:07.151Z,991.28
2019-02-02T09:17:07.143Z,991.33
2019-02-02T09:18:07.147Z,991.33
2019-02-02T09:19:07.131Z,991.34
2019-02-02T09:20:07.114Z,991.36
2019-02-02T09:21:07.107Z,991.39
2019-02-02T09:22:07.093Z,991.42
2019-02-02T09:23:07.097Z,991.47
2019-02-02T09:24:07.075Z,991.46
2019-02-02T09:25:07.064Z,991.46
2019-02-02T09:26:07.051Z,991.52
2019-02-02T09:27:07.038Z,991.48
2019-02-02T09:28:07.054Z,991.40
2019-02-02T09:29:10.261Z,991.45
2019-02-02T09:30:07.009Z,991.34
2019-02-02T09:31:15.488Z,991.38
2019-02-02T09:32:08.000Z,991.38
2019-02-02T09:33:06.987Z,991.35
2019-02-02T09:34:06.976Z,991.28
2019-02-02T09:35:06.959Z,991.25
2019-02-02T09:36:06.949Z,991.21
2019-02-02T09:37:06.939Z,991.26
2019-02-02T09:38:06.930Z,991.33
2019-02-02T09:39:06.930Z,991.37
2019-02-02T09:40:06.906Z,991.41
2019-02-02T09:41:06.896Z,991.42
2019-02-02T09:42:06.891Z,991.39
2019-02-02T09:43:06.876Z,991.34
2019-02-02T09:44:06.874Z,991.29
2019-02-02T09:45:06.857Z,991.28
2019-02-02T09:46:06.846Z,991.33
2019-02-02T09:47:06.830Z,991.37
2019-02-02T09:48:06.829Z,991.34
2019-02-02T09:49:06.878Z,991.41
2019-02-02T09:50:06.943Z,991.42
2019-02-02T09:51:06.787Z,991.44
2019-02-02T09:52:06.781Z,991.50
2019-02-02T09:53:06.775Z,991.42
2019-02-02T09:54:09.090Z,991.48
2019-02-02T09:55:06.760Z,991.54
2019-02-02T09:56:06.748Z,991.51
2019-02-02T09:57:06.734Z,991.50
2019-02-02T09:58:08.820Z,991.41
2019-02-02T09:59:09.606Z,991.40
2019-02-02T10:00:06.712Z,991.40
2019-02-02T10:01:06.690Z,991.45
2019-02-02T10:02:06.678Z,991.47
2019-02-02T10:03:06.671Z,991.47
2019-02-02T10:04:06.657Z,991.44
2019-02-02T10:05:06.676Z,991.46
2019-02-02T10:06:06.645Z,991.45
2019-02-02T10:07:06.627Z,991.41
2019-02-02T10:08:06.617Z,991.46
2019-02-02T10:09:06.614Z,991.36
2019-02-02T10:10:06.592Z,991.36
2019-02-02T10:11:06.612Z,991.39
2019-02-02T10:12:06.605Z,991.38
2019-02-02T10:13:06.570Z,991.44
2019-02-02T10:14:06.566Z,991.39
2019-02-02T10:15:06.550Z,991.38
2019-02-02T10:16:06.601Z,991.37
2019-02-02T10:17:06.522Z,991.34
2019-02-02T10:18:06.521Z,991.30
2019-02-02T10:19:06.510Z,991.33
2019-02-02T10:20:06.493Z,991.36
2019-02-02T10:21:06.496Z,991.39
2019-02-02T10:22:06.484Z,991.37
2019-02-02T10:23:06.459Z,991.43
2019-02-02T10:24:06.455Z,991.42
2019-02-02T10:25:06.438Z,991.35
2019-02-02T10:26:06.515Z,991.36
2019-02-02T10:27:06.417Z,991.40
2019-02-02T10:28:06.417Z,991.45
2019-02-02T10:29:06.413Z,991.45
2019-02-02T10:30:06.393Z,991.48
2019-02-02T10:31:13.410Z,991.52
2019-02-02T10:32:06.375Z,991.48
2019-02-02T10:33:06.358Z,991.43
2019-02-02T10:34:06.345Z,991.36
2019-02-02T10:35:06.336Z,991.39
2019-02-02T10:36:06.378Z,991.34
2019-02-02T10:37:06.321Z,991.28
2019-02-02T10:38:06.305Z,991.28
2019-02-02T10:39:06.305Z,991.26
2019-02-02T10:40:06.287Z,991.27
2019-02-02T10:41:06.343Z,991.32
2019-02-02T10:42:06.275Z,991.28
2019-02-02T10:43:06.251Z,991.32
2019-02-02T10:44:06.241Z,991.31
2019-02-02T10:45:06.228Z,991.35
2019-02-02T10:46:06.250Z,991.35
2019-02-02T10:47:06.218Z,991.37
2019-02-02T10:48:06.210Z,991.31
2019-02-02T10:49:06.212Z,991.33
2019-02-02T10:50:06.183Z,991.32
2019-02-02T10:51:06.167Z,991.31
2019-02-02T10:52:06.178Z,991.33
2019-02-02T10:53:06.148Z,991.36
2019-02-02T10:54:06.138Z,991.40
2019-02-02T10:55:06.124Z,991.40
2019-02-02T10:56:06.116Z,991.34
2019-02-02T10:57:06.115Z,991.36
2019-02-02T10:58:06.092Z,991.34
2019-02-02T10:59:06.088Z,991.36
2019-02-02T11:00:06.081Z,991.34
2019-02-02T11:01:06.086Z,991.41
2019-02-02T11:02:06.092Z,991.39
2019-02-02T11:03:06.041Z,991.41
2019-02-02T11:04:06.039Z,991.38
2019-02-02T11:05:06.165Z,991.37
2019-02-02T11:06:06.040Z,991.41
2019-02-02T11:07:06.046Z,991.46
2019-02-02T11:08:06.126Z,991.46
2019-02-02T11:09:06.088Z,991.48
2019-02-02T11:10:05.990Z,991.48
2019-02-02T11:11:05.967Z,991.44
2019-02-02T11:12:05.978Z,991.43
2019-02-02T11:13:06.122Z,991.42
2019-02-02T11:14:06.015Z,991.45
2019-02-02T11:15:06.002Z,991.45
2019-02-02T11:16:08.488Z,991.49
2019-02-02T11:17:06.059Z,991.44
2019-02-02T11:18:05.974Z,991.53
2019-02-02T11:19:05.941Z,991.51
2019-02-02T11:20:05.928Z,991.50
2019-02-02T11:21:05.916Z,991.39
2019-02-02T11:22:05.846Z,991.41
2019-02-02T11:23:05.992Z,991.42
2019-02-02T11:24:05.894Z,991.47
2019-02-02T11:25:06.048Z,991.43
2019-02-02T11:26:05.955Z,991.44
2019-02-02T11:27:05.825Z,991.43
2019-02-02T11:28:05.879Z,991.47
2019-02-02T11:29:05.817Z,991.37
2019-02-02T11:30:05.802Z,991.41
2019-02-02T11:31:05.746Z,991.34
2019-02-02T11:32:05.735Z,991.36
2019-02-02T11:33:05.731Z,991.35
2019-02-02T11:34:05.754Z,991.29
2019-02-02T11:35:05.732Z,991.29
2019-02-02T11:36:05.717Z,991.24
2019-02-02T11:37:05.690Z,991.22
2019-02-02T11:38:05.678Z,991.25
2019-02-02T11:39:05.705Z,991.22
2019-02-02T11:40:05.662Z,991.27
2019-02-02T11:41:05.655Z,991.33
2019-02-02T11:42:05.638Z,991.37
2019-02-02T11:43:05.643Z,991.37
2019-02-02T11:44:05.617Z,991.34
2019-02-02T11:45:05.628Z,991.33
2019-02-02T11:46:05.613Z,991.33
2019-02-02T11:47:05.637Z,991.30
2019-02-02T11:48:05.577Z,991.33
2019-02-02T11:49:05.570Z,991.33
2019-02-02T11:50:05.580Z,991.31
2019-02-02T11:51:05.545Z,991.29
2019-02-02T11:52:05.533Z,991.34
2019-02-02T11:53:05.525Z,991.37
2019-02-02T11:54:05.517Z,991.42
2019-02-02T11:55:05.534Z,991.42
2019-02-02T11:56:05.509Z,991.45
2019-02-02T11:57:05.489Z,991.51
2019-02-02T11:58:05.473Z,991.51
2019-02-02T11:59:05.462Z,991.52
2019-02-02T12:00:05.500Z,991.52
2019-02-02T12:01:05.451Z,991.53
2019-02-02T12:02:14.254Z,991.56
2019-02-02T12:03:06.429Z,991.60
2019-02-02T12:04:05.427Z,991.62
2019-02-02T12:05:05.443Z,991.64
2019-02-02T12:06:05.428Z,991.72
2019-02-02T12:07:05.385Z,991.80
2019-02-02T12:08:05.416Z,991.83
2019-02-02T12:09:05.363Z,991.76
2019-02-02T12:10:05.354Z,991.76
2019-02-02T12:11:05.358Z,991.78
2019-02-02T12:12:05.330Z,991.75
2019-02-02T12:13:05.321Z,991.78
2019-02-02T12:14:05.311Z,991.83
2019-02-02T12:15:05.298Z,991.82
2019-02-02T12:16:05.307Z,991.83
2019-02-02T12:17:05.282Z,991.84
2019-02-02T12:18:05.269Z,991.86
2019-02-02T12:19:05.264Z,991.78
2019-02-02T12:20:05.286Z,991.76
2019-02-02T12:21:05.250Z,991.81
2019-02-02T12:22:05.234Z,991.76
2019-02-02T12:23:05.228Z,991.75
2019-02-02T12:24:14.230Z,991.76
2019-02-02T12:25:06.198Z,991.72
2019-02-02T12:26:05.200Z,991.73
2019-02-02T12:27:05.190Z,991.72
2019-02-02T12:28:05.172Z,991.74